This is the latest recevied weather packets stored in our database for station/object K0APR. If no packets are shown the sender has not sent any weather packets the latest 1 day(s).
| Time | Temp. | Humidity | Pressure | Rain* | Wind** | Luminosity | Snow |
|---|---|---|---|---|---|---|---|
| 1777997538 | 7.78° C | 43% | 1012 hPa | 0 mm | 4.47 m/s, 314° | 241 W/m² | - |
| 1777997235 | 7.78° C | 45% | 1012 hPa | 0 mm | 4.92 m/s, 338° | 272 W/m² | - |
| 1777996933 | 7.78° C | 45% | 1012 hPa | 0 mm | 4.47 m/s, 325° | 269 W/m² | - |
| 1777996629 | 7.22° C | 45% | 1012 hPa | 0 mm | 5.36 m/s, 337° | 169 W/m² | - |
| 1777996325 | 7.78° C | 45% | 1012.3 hPa | 0 mm | 6.71 m/s, 331° | 185 W/m² | - |
| 1777996022 | 7.78° C | 46% | 1012 hPa | 0 mm | 5.81 m/s, 327° | 193 W/m² | - |
| 1777995718 | 8.33° C | 45% | 1012 hPa | 0 mm | 3.13 m/s, 350° | 151 W/m² | - |
| 1777995415 | 8.33° C | 43% | 1012 hPa | 0 mm | 4.92 m/s, 311° | 776 W/m² | - |
| 1777995112 | 7.78° C | 44% | 1012 hPa | 0 mm | 5.36 m/s, 8° | 695 W/m² | - |
| 1777994809 | 7.22° C | 45% | 1012 hPa | 0 mm | 4.02 m/s, 358° | 711 W/m² | - |
| 1777994504 | 7.78° C | 44% | 1012 hPa | 0 mm | 3.13 m/s, 326° | 691 W/m² | - |
| 1777994200 | 7.78° C | 49% | 1012 hPa | 0 mm | 4.02 m/s, 323° | 100 W/m² | - |
| 1777993898 | 7.78° C | 45% | 1012 hPa | 0 mm | 4.02 m/s, 287° | 636 W/m² | - |
| 1777993593 | 7.22° C | 46% | 1012 hPa | 0 mm | 3.58 m/s, 317° | 600 W/m² | - |
| 1777993291 | 7.22° C | 48% | 1012 hPa | 0 mm | 5.36 m/s, 311° | 579 W/m² | - |
| 1777992986 | 7.22° C | 49% | 1012 hPa | 0 mm | 3.13 m/s, 333° | 524 W/m² | - |
| 1777992685 | 7.22° C | 50% | 1012.3 hPa | 0 mm | 4.92 m/s, 339° | 493 W/m² | - |
| 1777992382 | 7.22° C | 51% | 1012 hPa | 0 mm | 3.58 m/s, 295° | 87 W/m² | - |
| 1777992080 | 7.22° C | 50% | 1012 hPa | 0 mm | 6.26 m/s, 336° | 461 W/m² | - |
| 1777991777 | 7.22° C | 51% | 1012 hPa | 0 mm | 4.47 m/s, 27° | 459 W/m² | - |
| 1777991474 | 7.22° C | 53% | 1012 hPa | 0 mm | 4.02 m/s, 316° | 444 W/m² | - |
| 1777991171 | 6.67° C | 52% | 1012 hPa | 0 mm | 4.02 m/s, 322° | 414 W/m² | - |
| 1777990868 | 7.22° C | 55% | 1012 hPa | 0 mm | 4.92 m/s, 350° | 301 W/m² | - |
| 1777990566 | 7.22° C | 56% | 1012 hPa | 0 mm | 3.13 m/s, 312° | 372 W/m² | - |
| 1777990262 | 6.67° C | 58% | 1012 hPa | 0 mm | 3.58 m/s, 311° | 352 W/m² | - |
* Rain latest hour (hover to see other rain measurements)
** Current wind speed in m/s (hover to see current wind gust speed)